createdAt,value
2018-01-14T00:01:55.128Z,23.20
2018-01-14T00:04:24.724Z,23.63
2018-01-14T00:06:52.627Z,23.50
2018-01-14T00:09:20.785Z,22.90
2018-01-14T00:11:50.722Z,24.37
2018-01-14T00:14:24.533Z,22.93
2018-01-14T00:16:54.937Z,25.97
2018-01-14T00:19:23.306Z,25.23
2018-01-14T00:21:51.169Z,26.23
2018-01-14T00:24:21.823Z,23.30
2018-01-14T00:26:51.428Z,25.30
2018-01-14T00:29:21.786Z,24.03
2018-01-14T00:31:49.731Z,22.57
2018-01-14T00:34:18.519Z,24.17
2018-01-14T00:36:48.141Z,24.20
2018-01-14T00:39:16.093Z,22.53
2018-01-14T00:41:46.105Z,22.80
2018-01-14T00:44:14.581Z,24.73
2018-01-14T00:46:44.778Z,24.23
2018-01-14T00:49:12.583Z,22.27
2018-01-14T00:51:40.511Z,22.67
2018-01-14T00:54:08.306Z,27.50
2018-01-14T00:56:36.980Z,33.40
2018-01-14T00:59:06.461Z,25.67
2018-01-14T01:01:34.251Z,22.23
2018-01-14T01:04:03.811Z,22.87
2018-01-14T01:06:31.662Z,19.93
2018-01-14T01:09:01.252Z,26.70
2018-01-14T01:11:29.135Z,24.13
2018-01-14T01:13:58.867Z,21.00
2018-01-14T01:16:26.720Z,24.27
2018-01-14T01:18:56.336Z,22.83
2018-01-14T01:21:24.134Z,20.80
2018-01-14T01:23:51.989Z,26.10
2018-01-14T01:26:22.925Z,23.30
2018-01-14T01:28:51.197Z,21.73
2018-01-14T01:31:25.643Z,27.03
2018-01-14T01:33:53.715Z,23.63
2018-01-14T01:36:21.478Z,22.43
2018-01-14T01:38:55.077Z,23.83
2018-01-14T01:41:22.975Z,20.97
2018-01-14T01:43:52.632Z,23.17
2018-01-14T01:46:23.604Z,19.77
2018-01-14T01:48:53.079Z,24.00
2018-01-14T01:51:21.432Z,24.70
2018-01-14T01:53:49.442Z,22.37
2018-01-14T01:56:20.331Z,21.30
2018-01-14T01:58:48.067Z,24.50
2018-01-14T02:01:15.963Z,28.03
2018-01-14T02:03:44.528Z,20.47
2018-01-14T02:06:14.227Z,22.40
2018-01-14T02:08:43.848Z,20.60
2018-01-14T02:11:11.716Z,25.47
2018-01-14T02:13:39.479Z,23.03
2018-01-14T02:16:07.563Z,28.57
2018-01-14T02:18:35.307Z,21.67
2018-01-14T02:21:03.805Z,18.33
2018-01-14T02:23:31.611Z,20.87
2018-01-14T02:26:01.111Z,21.77
2018-01-14T02:28:29.145Z,22.67
2018-01-14T02:30:59.543Z,26.87
2018-01-14T02:33:28.693Z,19.90
2018-01-14T02:35:58.301Z,17.37
2018-01-14T02:38:26.287Z,23.20
2018-01-14T02:40:55.856Z,20.40
2018-01-14T02:43:25.439Z,20.20
2018-01-14T02:45:53.255Z,23.80
2018-01-14T02:48:20.959Z,22.67
2018-01-14T02:50:48.755Z,21.13
2018-01-14T02:53:18.421Z,19.60
2018-01-14T02:55:48.965Z,18.90
2018-01-14T02:58:16.785Z,18.83
2018-01-14T03:00:44.585Z,21.03
2018-01-14T03:03:19.919Z,21.17
2018-01-14T03:05:47.879Z,20.37
2018-01-14T03:08:15.758Z,17.67
2018-01-14T03:10:43.549Z,19.73
2018-01-14T03:13:13.953Z,19.80
2018-01-14T03:15:42.643Z,23.40
2018-01-14T03:18:13.785Z,22.47
2018-01-14T03:20:41.636Z,22.57
2018-01-14T03:23:10.755Z,20.53
2018-01-14T03:25:38.625Z,21.77
2018-01-14T03:28:06.429Z,23.43
2018-01-14T03:30:39.810Z,22.23
2018-01-14T03:33:09.363Z,19.77
2018-01-14T03:35:39.299Z,24.73
2018-01-14T03:38:09.010Z,20.10
2018-01-14T03:40:43.249Z,18.20
2018-01-14T03:43:11.011Z,21.57
2018-01-14T03:45:38.897Z,21.07
2018-01-14T03:48:07.469Z,21.67
2018-01-14T03:53:15.914Z,19.97
2018-01-14T03:55:45.581Z,20.67
2018-01-14T03:58:15.097Z,21.37
2018-01-14T04:00:46.560Z,19.30
2018-01-14T04:03:19.870Z,21.37
2018-01-14T04:05:51.451Z,18.20
2018-01-14T04:08:21.091Z,19.77
2018-01-14T04:10:50.213Z,20.00
2018-01-14T04:13:18.816Z,19.07
2018-01-14T04:15:51.557Z,16.40
2018-01-14T04:18:19.454Z,25.83
2018-01-14T04:20:50.406Z,17.10
2018-01-14T04:23:22.164Z,14.63
2018-01-14T04:25:53.058Z,15.37
2018-01-14T04:28:20.884Z,18.23
2018-01-14T04:30:52.112Z,17.27
2018-01-14T04:33:24.185Z,18.70
2018-01-14T04:35:52.062Z,19.30
2018-01-14T04:38:19.911Z,19.10
2018-01-14T04:40:56.897Z,18.33
2018-01-14T04:43:24.755Z,16.97
2018-01-14T04:45:54.581Z,14.20
2018-01-14T04:48:22.435Z,15.40
2018-01-14T04:50:50.244Z,17.50
2018-01-14T04:53:27.820Z,19.13
2018-01-14T04:55:57.312Z,21.87
2018-01-14T04:58:25.171Z,20.40
2018-01-14T05:00:54.807Z,21.27
2018-01-14T05:03:27.442Z,19.47
2018-01-14T05:05:58.316Z,17.10
2018-01-14T05:10:58.631Z,22.00
2018-01-14T05:13:26.375Z,17.40
2018-01-14T05:15:54.186Z,19.10
2018-01-14T05:18:25.196Z,17.20
2018-01-14T05:20:54.128Z,18.83
2018-01-14T05:23:23.040Z,18.77
2018-01-14T05:25:52.538Z,16.00
2018-01-14T05:28:21.421Z,18.30
2018-01-14T05:30:51.148Z,16.73
2018-01-14T05:33:23.035Z,19.07
2018-01-14T05:35:50.873Z,17.17
2018-01-14T05:38:20.726Z,15.70
2018-01-14T05:40:48.988Z,16.03
2018-01-14T05:43:18.759Z,15.43
2018-01-14T05:45:49.128Z,16.77
2018-01-14T05:48:16.994Z,14.77
2018-01-14T05:50:44.862Z,15.03
2018-01-14T05:53:15.584Z,17.20
2018-01-14T05:55:52.074Z,17.97
2018-01-14T05:58:22.388Z,14.90
2018-01-14T06:00:52.034Z,16.43
2018-01-14T06:03:22.950Z,16.93
2018-01-14T06:05:51.214Z,14.13
2018-01-14T06:08:19.168Z,16.50
2018-01-14T06:10:48.758Z,14.00
2018-01-14T06:13:16.602Z,17.20
2018-01-14T06:15:46.600Z,15.97
2018-01-14T06:18:16.040Z,17.00
2018-01-14T06:20:44.186Z,19.03
2018-01-14T06:23:22.620Z,17.43
2018-01-14T06:25:52.176Z,17.77
2018-01-14T06:28:20.036Z,13.40
2018-01-14T06:30:51.164Z,14.43
2018-01-14T06:33:26.004Z,16.13
2018-01-14T06:35:53.892Z,15.20
2018-01-14T06:38:23.468Z,14.20
2018-01-14T06:40:51.496Z,16.97
2018-01-14T06:43:20.858Z,15.67
2018-01-14T06:45:53.944Z,17.17
2018-01-14T06:48:25.938Z,16.17
2018-01-14T06:50:53.862Z,13.53
2018-01-14T06:53:24.398Z,16.47
2018-01-14T06:55:54.856Z,15.70
2018-01-14T06:58:25.498Z,16.37
2018-01-14T07:00:53.388Z,14.23
2018-01-14T07:03:22.847Z,11.90
2018-01-14T07:05:50.852Z,14.43
2018-01-14T07:08:18.863Z,14.63
2018-01-14T07:10:50.106Z,13.00
2018-01-14T07:13:21.350Z,14.43
2018-01-14T07:15:49.207Z,12.80
2018-01-14T07:18:17.059Z,14.33
2018-01-14T07:20:44.858Z,13.13
2018-01-14T07:23:22.181Z,13.63
2018-01-14T07:25:50.496Z,13.57
2018-01-14T07:28:20.036Z,14.67
2018-01-14T07:30:49.672Z,15.20
2018-01-14T07:33:19.812Z,14.53
2018-01-14T07:35:55.846Z,12.13
2018-01-14T07:38:23.755Z,12.33
2018-01-14T07:40:53.128Z,16.33
2018-01-14T07:43:26.361Z,12.80
2018-01-14T07:45:55.106Z,11.40
2018-01-14T07:48:23.020Z,14.53
2018-01-14T07:50:52.618Z,13.17
2018-01-14T07:53:21.643Z,13.83
2018-01-14T07:55:49.609Z,13.30
2018-01-14T07:58:18.290Z,14.90
2018-01-14T08:00:47.814Z,16.30
2018-01-14T08:03:18.639Z,15.93
2018-01-14T08:05:46.609Z,15.90
2018-01-14T08:08:15.188Z,15.73
2018-01-14T08:10:44.914Z,18.10
2018-01-14T08:13:12.769Z,14.60
2018-01-14T08:15:43.306Z,14.70
2018-01-14T08:18:11.136Z,13.60
2018-01-14T08:20:40.572Z,12.97
2018-01-14T08:23:11.029Z,12.97
2018-01-14T08:25:38.923Z,10.97
2018-01-14T08:28:06.727Z,9.60
2018-01-14T08:30:36.457Z,13.27
2018-01-14T08:33:06.145Z,11.00
2018-01-14T08:35:34.050Z,10.93
2018-01-14T08:38:02.603Z,11.90
2018-01-14T08:40:30.439Z,12.17
2018-01-14T08:42:59.929Z,12.60
2018-01-14T08:45:29.587Z,11.60
2018-01-14T08:47:59.441Z,15.50
2018-01-14T08:50:28.137Z,11.47
2018-01-14T08:52:56.197Z,10.77
2018-01-14T08:55:26.629Z,11.43
2018-01-14T08:57:56.165Z,10.17
2018-01-14T09:00:25.233Z,13.23
2018-01-14T09:02:54.699Z,9.27
2018-01-14T09:05:22.723Z,11.80
2018-01-14T09:07:53.549Z,11.43
2018-01-14T09:10:21.325Z,10.53
2018-01-14T09:12:49.274Z,10.17
2018-01-14T09:15:17.191Z,9.70
2018-01-14T09:17:47.714Z,9.60
2018-01-14T09:20:17.289Z,10.50
2018-01-14T09:22:47.017Z,8.33
2018-01-14T09:25:22.963Z,10.17
2018-01-14T09:27:52.039Z,9.30
2018-01-14T09:30:33.573Z,11.23
2018-01-14T09:33:01.511Z,10.17
2018-01-14T09:35:29.421Z,8.63
2018-01-14T09:37:57.341Z,9.10
2018-01-14T09:40:25.538Z,18.33
2018-01-14T09:42:53.509Z,11.50
2018-01-14T09:45:21.341Z,20.77
2018-01-14T09:47:49.253Z,17.87
2018-01-14T09:50:17.231Z,12.90
2018-01-14T09:52:45.908Z,11.40
2018-01-14T09:55:17.635Z,12.57
2018-01-14T09:57:45.571Z,9.67
2018-01-14T10:00:14.501Z,10.50
2018-01-14T10:02:44.000Z,10.50
2018-01-14T10:05:14.410Z,8.90
2018-01-14T10:07:43.063Z,9.10
2018-01-14T10:10:16.026Z,11.80
2018-01-14T10:12:47.597Z,9.90
2018-01-14T10:15:17.939Z,11.83
2018-01-14T10:17:46.899Z,9.63
2018-01-14T10:20:15.697Z,10.10
2018-01-14T10:22:51.777Z,10.53
2018-01-14T10:25:27.437Z,8.23
2018-01-14T10:27:58.338Z,11.33
2018-01-14T10:30:28.997Z,9.50
2018-01-14T10:33:03.041Z,7.40
2018-01-14T10:35:31.703Z,10.90
2018-01-14T10:38:03.462Z,13.03
2018-01-14T10:40:37.101Z,11.53
2018-01-14T10:43:09.965Z,9.87
2018-01-14T10:45:39.763Z,10.83
2018-01-14T10:48:16.013Z,10.93
2018-01-14T10:50:50.034Z,11.90
2018-01-14T10:53:21.595Z,11.37
2018-01-14T10:55:49.962Z,10.40
2018-01-14T10:58:32.878Z,9.07
2018-01-14T11:01:07.588Z,9.13
2018-01-14T11:03:40.338Z,13.33
2018-01-14T11:06:10.103Z,8.73
2018-01-14T11:08:39.806Z,10.20
2018-01-14T11:11:07.654Z,11.27
2018-01-14T11:13:39.454Z,9.47
2018-01-14T11:16:09.045Z,10.50
2018-01-14T11:18:48.881Z,10.87
2018-01-14T11:21:20.647Z,9.97
2018-01-14T11:23:51.355Z,12.83
2018-01-14T11:26:25.492Z,11.37
2018-01-14T11:31:30.563Z,10.07
2018-01-14T11:34:02.000Z,9.27
2018-01-14T11:36:31.303Z,9.70
2018-01-14T11:38:59.292Z,10.30
2018-01-14T11:41:29.692Z,8.90
2018-01-14T11:43:59.708Z,10.97
2018-01-14T11:46:29.380Z,9.10
2018-01-14T11:48:57.111Z,8.40
2018-01-14T11:51:25.058Z,9.80
2018-01-14T11:53:54.636Z,9.30
2018-01-14T11:56:24.421Z,9.13
2018-01-14T11:58:57.047Z,7.83
2018-01-14T12:01:25.857Z,10.17
2018-01-14T12:03:56.188Z,10.77
2018-01-14T12:06:31.423Z,9.40
2018-01-14T12:09:02.583Z,7.57
2018-01-14T12:11:34.230Z,7.60
2018-01-14T12:14:02.106Z,8.23
2018-01-14T12:16:31.673Z,7.27
2018-01-14T12:19:01.005Z,8.10
2018-01-14T12:21:32.556Z,10.20
2018-01-14T12:24:00.613Z,8.30
2018-01-14T12:26:30.357Z,7.80
2018-01-14T12:29:01.297Z,10.90
2018-01-14T12:31:29.170Z,8.23
2018-01-14T12:47:54.936Z,11.60
2018-01-14T12:50:23.634Z,23.40
2018-01-14T12:52:52.726Z,14.90
2018-01-14T12:55:24.768Z,23.73
2018-01-14T12:57:55.333Z,17.07
2018-01-14T13:00:26.055Z,12.23
2018-01-14T13:05:31.499Z,9.73
2018-01-14T13:08:01.830Z,9.70
2018-01-14T13:10:32.454Z,10.53
2018-01-14T13:13:02.896Z,10.00
2018-01-14T13:15:30.862Z,9.10
2018-01-14T13:18:05.643Z,8.60
2018-01-14T13:20:33.506Z,9.10
2018-01-14T13:23:02.164Z,7.17
2018-01-14T13:25:30.349Z,8.67
2018-01-14T13:28:00.057Z,8.93
2018-01-14T13:30:28.026Z,11.57
2018-01-14T13:32:58.664Z,8.13
2018-01-14T13:35:27.294Z,7.73
2018-01-14T13:37:55.117Z,9.53
2018-01-14T13:40:24.824Z,6.03
2018-01-14T13:42:52.714Z,11.70
2018-01-14T13:45:24.460Z,6.80
2018-01-14T13:47:53.377Z,7.50
2018-01-14T13:50:23.992Z,9.10
2018-01-14T13:52:52.126Z,7.77
2018-01-14T13:55:22.630Z,8.97
2018-01-14T13:57:50.996Z,7.03
2018-01-14T14:00:19.072Z,9.83
2018-01-14T14:02:52.881Z,8.73
2018-01-14T14:05:20.918Z,12.20
2018-01-14T14:07:48.911Z,6.90
2018-01-14T14:10:22.761Z,6.23
2018-01-14T14:12:52.369Z,10.47
2018-01-14T14:15:20.215Z,7.87
2018-01-14T14:17:48.008Z,7.53
2018-01-14T14:20:16.641Z,9.07
2018-01-14T14:22:45.539Z,6.57
2018-01-14T14:25:13.403Z,8.90
2018-01-14T14:27:41.298Z,8.13
2018-01-14T14:30:10.811Z,14.03
2018-01-14T14:32:38.861Z,10.80
2018-01-14T14:35:09.443Z,11.27
2018-01-14T14:37:38.302Z,8.70
2018-01-14T14:40:06.136Z,8.07
2018-01-14T14:42:34.219Z,9.23
2018-01-14T14:45:02.060Z,9.73
2018-01-14T14:47:31.775Z,11.90
2018-01-14T14:50:02.337Z,10.23
2018-01-14T14:52:30.217Z,8.00
2018-01-14T14:54:58.843Z,8.00
2018-01-14T14:57:26.898Z,9.23
2018-01-14T14:59:54.863Z,7.40
2018-01-14T15:02:22.742Z,12.80
2018-01-14T15:04:50.717Z,9.33
2018-01-14T15:07:18.566Z,14.57
2018-01-14T15:09:48.193Z,12.80
2018-01-14T15:12:19.033Z,10.77
2018-01-14T15:14:48.782Z,11.27
2018-01-14T15:17:16.878Z,7.90
2018-01-14T15:19:45.017Z,8.17
2018-01-14T15:22:14.483Z,8.43
2018-01-14T15:24:42.824Z,9.07
2018-01-14T15:27:10.768Z,9.17
2018-01-14T15:29:39.746Z,10.00
2018-01-14T15:32:07.627Z,9.40
2018-01-14T15:34:35.610Z,9.70
2018-01-14T15:37:05.191Z,10.50
2018-01-14T15:39:35.827Z,11.53
2018-01-14T15:42:04.644Z,10.60
2018-01-14T15:44:34.271Z,10.53
2018-01-14T15:47:02.449Z,12.40
2018-01-14T15:49:30.418Z,10.27
2018-01-14T15:51:58.398Z,11.53
2018-01-14T15:54:28.897Z,10.90
2018-01-14T15:56:59.600Z,11.10
2018-01-14T15:59:29.466Z,12.60
2018-01-14T16:01:57.533Z,10.63
2018-01-14T16:04:26.985Z,8.57
2018-01-14T16:06:56.725Z,8.97
2018-01-14T16:09:25.338Z,9.50
2018-01-14T16:11:54.857Z,14.33
2018-01-14T16:14:28.857Z,7.47
2018-01-14T16:16:57.485Z,7.90
2018-01-14T16:19:28.568Z,10.87
2018-01-14T16:22:00.101Z,12.83
2018-01-14T16:24:29.053Z,8.17
2018-01-14T16:27:00.910Z,10.60
2018-01-14T16:29:31.026Z,8.07
2018-01-14T16:31:59.310Z,7.87
2018-01-14T16:34:30.249Z,10.30
2018-01-14T16:37:02.652Z,7.83
2018-01-14T16:39:31.000Z,11.10
2018-01-14T16:41:58.984Z,8.40
2018-01-14T16:44:29.110Z,6.70
2018-01-14T16:47:09.373Z,10.73
2018-01-14T16:49:38.960Z,9.37
2018-01-14T16:52:07.040Z,9.80
2018-01-14T16:54:36.602Z,10.27
2018-01-14T16:59:37.609Z,9.97
2018-01-14T17:02:09.311Z,11.63
2018-01-14T17:29:01.058Z,12.77
2018-01-14T17:31:32.457Z,14.47
2018-01-14T17:34:01.873Z,12.47
2018-01-14T17:36:30.033Z,13.53
2018-01-14T17:38:59.892Z,14.40
2018-01-14T17:41:34.509Z,14.73
2018-01-14T17:44:03.673Z,15.77
2018-01-14T17:46:47.200Z,14.07
2018-01-14T17:49:19.702Z,13.20
2018-01-14T17:51:53.786Z,14.40
2018-01-14T17:54:25.023Z,11.67
2018-01-14T17:56:57.392Z,13.90
2018-01-14T17:59:26.161Z,19.30
2018-01-14T18:01:58.766Z,17.00
2018-01-14T18:04:29.683Z,12.60
2018-01-14T18:07:02.091Z,13.50
2018-01-14T18:12:18.874Z,14.70
2018-01-14T18:14:48.312Z,14.53
2018-01-14T18:20:21.708Z,15.27
2018-01-14T18:22:53.792Z,12.83
2018-01-14T18:25:23.414Z,14.03
2018-01-14T18:27:52.237Z,14.50
2018-01-14T18:30:22.085Z,15.40
2018-01-14T18:32:50.179Z,18.33
2018-01-14T18:35:21.820Z,14.33
2018-01-14T18:37:51.788Z,13.00
2018-01-14T18:40:19.924Z,15.30
2018-01-14T18:42:48.204Z,15.67
2018-01-14T18:45:20.448Z,14.53
2018-01-14T18:47:51.808Z,21.53
2018-01-14T18:50:20.009Z,14.83
2018-01-14T18:52:58.208Z,15.00
2018-01-14T18:55:27.835Z,14.13
2018-01-14T18:57:55.993Z,13.27
2018-01-14T19:00:26.937Z,12.43
2018-01-14T19:02:55.219Z,13.33
2018-01-14T19:05:26.975Z,13.50
2018-01-14T19:07:57.617Z,13.10
2018-01-14T19:10:25.877Z,14.47
2018-01-14T19:12:54.174Z,13.77
2018-01-14T19:15:22.976Z,12.03
2018-01-14T19:17:52.800Z,12.33
2018-01-14T19:20:20.987Z,18.13
2018-01-14T19:22:52.869Z,13.50
2018-01-14T19:25:22.292Z,14.63
2018-01-14T19:40:53.444Z,18.47
2018-01-14T19:43:22.600Z,15.47
2018-01-14T19:45:51.687Z,15.13
2018-01-14T19:48:25.481Z,15.37
2018-01-14T19:50:55.318Z,15.07
2018-01-14T19:53:25.358Z,16.80
2018-01-14T19:55:53.489Z,12.60
2018-01-14T19:58:29.158Z,12.77
2018-01-14T20:01:01.316Z,13.57
2018-01-14T20:03:32.938Z,12.03
2018-01-14T20:06:02.132Z,9.53
2018-01-14T20:08:33.345Z,11.33
2018-01-14T20:11:05.405Z,11.90
2018-01-14T20:13:34.616Z,8.97
2018-01-14T20:16:03.702Z,9.83
2018-01-14T20:18:35.434Z,10.60
2018-01-14T20:21:04.593Z,12.40
2018-01-14T20:26:19.120Z,13.80
2018-01-14T20:28:47.635Z,11.60
2018-01-14T20:31:23.953Z,12.83
2018-01-14T20:33:52.191Z,9.47
2018-01-14T20:36:20.895Z,12.20
2018-01-14T20:38:50.316Z,9.60
2018-01-14T20:41:19.699Z,9.40
2018-01-14T20:43:50.883Z,14.20
2018-01-14T20:46:21.248Z,10.20
2018-01-14T20:48:50.971Z,12.80
2018-01-14T20:51:24.063Z,11.20
2018-01-14T20:53:54.051Z,9.63
2018-01-14T20:56:24.016Z,9.17
2018-01-14T20:58:53.081Z,11.10
2018-01-14T21:01:21.305Z,9.63
2018-01-14T21:03:51.997Z,9.50
2018-01-14T21:06:22.695Z,8.67
2018-01-14T21:08:50.928Z,9.47
2018-01-14T21:11:34.016Z,9.60
2018-01-14T21:14:02.254Z,9.23
2018-01-14T21:16:31.876Z,8.87
2018-01-14T21:19:01.138Z,10.63
2018-01-14T21:21:29.309Z,8.93
2018-01-14T21:23:58.189Z,10.10
2018-01-14T21:26:32.418Z,8.00
2018-01-14T21:29:00.699Z,10.40
2018-01-14T21:31:28.978Z,10.70
2018-01-14T21:33:57.167Z,9.10
2018-01-14T21:36:25.265Z,8.37
2018-01-14T21:38:54.412Z,9.20
2018-01-14T21:41:22.573Z,10.13
2018-01-14T21:43:51.009Z,8.77
2018-01-14T21:46:19.081Z,10.70
2018-01-14T21:48:47.172Z,8.90
2018-01-14T21:51:15.137Z,8.67
2018-01-14T21:53:43.239Z,8.47
2018-01-14T21:56:11.242Z,11.40
2018-01-14T21:58:42.785Z,9.23
2018-01-14T22:03:54.059Z,9.57
2018-01-14T22:06:22.035Z,8.63
2018-01-14T22:08:53.502Z,8.23
2018-01-14T22:11:21.511Z,8.97
2018-01-14T22:13:51.711Z,9.30
2018-01-14T22:16:22.508Z,8.70
2018-01-14T22:18:50.593Z,9.50
2018-01-14T22:21:19.205Z,12.63
2018-01-14T22:23:47.068Z,9.97
2018-01-14T22:26:18.726Z,9.47
2018-01-14T22:28:46.468Z,9.77
2018-01-14T22:31:24.898Z,11.30
2018-01-14T22:34:02.918Z,11.00
2018-01-14T22:36:30.771Z,9.67
2018-01-14T22:39:00.190Z,10.60
2018-01-14T22:41:34.390Z,9.73
2018-01-14T22:44:02.358Z,11.60
2018-01-14T22:46:33.614Z,12.13
2018-01-14T22:49:01.493Z,12.93
2018-01-14T22:51:29.448Z,12.90
2018-01-14T22:54:05.838Z,12.50
2018-01-14T22:56:39.445Z,12.90
2018-01-14T22:59:08.550Z,10.90
2018-01-14T23:01:40.080Z,13.10
2018-01-14T23:04:08.268Z,16.67
2018-01-14T23:06:36.199Z,12.50
2018-01-14T23:09:05.763Z,10.70
2018-01-14T23:11:34.932Z,10.87
2018-01-14T23:14:02.781Z,13.33
2018-01-14T23:16:31.724Z,13.73
2018-01-14T23:19:01.155Z,11.37
2018-01-14T23:21:29.172Z,11.70
2018-01-14T23:23:58.979Z,16.03
2018-01-14T23:26:33.567Z,10.33
2018-01-14T23:29:01.479Z,10.33
2018-01-14T23:31:29.467Z,11.17
2018-01-14T23:33:57.253Z,10.10
2018-01-14T23:36:26.728Z,11.80
2018-01-14T23:39:07.052Z,14.67
2018-01-14T23:41:37.579Z,13.57
2018-01-14T23:44:05.898Z,10.63
2018-01-14T23:46:36.387Z,12.57
2018-01-14T23:49:05.009Z,12.93
2018-01-14T23:51:34.567Z,14.70
2018-01-14T23:54:04.225Z,12.23
2018-01-14T23:56:32.207Z,13.37
2018-01-14T23:59:02.220Z,14.40
